Aberdeen, ID (83210)

8:34 PM MST on December 02, 2016 (GMT -0700)
ARLFRD | | Change Station

Elev 4392 ft 42.95 °N, 112.82 °W | Updated 24 minutes ago

Overcast
Overcast
21 °F
Feels Like 15 °F
N
4
Wind Variable Wind from WSW
Gusts 5.0 mph

Today
High -- | Low -- °F
--% Chance of Precip.
Yesterday
High -- | Low -- °F
Precip. -- in
Pressure 30.38 in
Visibility 10.0 miles
Clouds Overcast 2500 ft
Windchill 15 °F
Dew Point 19 °F
Humidity 90%
Rainfall in
Snow Depth Not available.
7:44 AM 4:57 PM
Waxing Crescent, 12% visible
METAR KPIH 030253Z 19008KT 10SM OVC025 M03/M07 A3027 RMK AO2 SLP288 T10281067 58008 $
Pressure 30.38 in
Visibility 10.0 miles
Clouds Overcast 2500 ft
Windchill 15 °F
Dew Point 19 °F
Humidity 90%
Rainfall in
Snow Depth Not available.
7:44 AM 4:57 PM
Waxing Crescent, 12% visible
METAR KPIH 030253Z 19008KT 10SM OVC025 M03/M07 A3027 RMK AO2 SLP288 T10281067 58008 $

10-Day Weather Forecast

Almanac

Astronomy

Dec. 02, 2016 Rise Set
Actual Time
Civil Twilight
Nautical Twilight
Astronomical Twilight
Moon
Length of Visible Light
Length of Day
Tomorrow will be .
, % of the Moon is Illuminated

Today's Extremes

State Highs State Lows

Community

WunderPhotos

Upload Photos

1,955,406 photos uploaded!

WunderBlog® & News

Nearby

Air Quality

  Air Quality AQ Index Pollutant
Not available.

Snow Depth

Station Depth Elevation

Earthquake Activity

City Distance Mag. Time & Date
Minimum magnitude displayed is 2.5.

Coastal Water Temperatures

Place Temperature

Stations

Nearby Weather Stations

Station Location Temp. Windchill Dew Point Humidity Wind Precip. Elev Updated Type
                   

Watches & Warnings

There are currently no watches in effect.